Time;durP1;ratioP1;P1;durP2;ratioP2;P2;SDS_P1;SDS_P2;PMS_P1;PMS_P2;Temp;Humidity;BMP_temperature;BMP_pressure;BME280_temperature;BME280_humidity;BME280_pressure;Samples;Min_cycle;Max_cycle;Signal;HPM_P1;HPM_P2
2023/07/20 00:00:12;;;;;;;;;;;23.80;69.00;;;-151.14;100.00;62537.16;4973409;28;19922;-85
2023/07/20 00:02:44;;;;;;;;;;;23.80;68.90;;;-151.14;100.00;62537.16;4973293;28;19922;-86
2023/07/20 00:05:12;;;;;;;;;;;23.80;68.90;;;-151.14;100.00;62537.16;4973129;28;19928;-85
2023/07/20 00:07:41;;;;;;;;;;;23.90;69.00;;;-151.14;100.00;62537.16;4972487;28;19929;-86
2023/07/20 00:10:10;;;;;;;;;;;23.90;69.00;;;-151.14;100.00;62537.16;4976414;28;19928;-85
2023/07/20 00:12:38;;;;;;;;;;;23.80;68.90;;;-151.14;100.00;62537.16;4992543;28;19922;-85
2023/07/20 00:15:06;;;;;;;;;;;23.80;68.90;;;-151.14;100.00;62537.16;4976346;28;20213;-86
2023/07/20 00:17:37;;;;;;;;;;;23.80;68.90;;;-151.14;100.00;62537.16;4975346;28;19921;-85
2023/07/20 00:20:06;;;;;;;;;;;23.80;68.90;;;-151.14;100.00;62537.16;4976654;28;19922;-85
2023/07/20 00:22:34;;;;;;;;;;;23.80;69.00;;;-151.14;100.00;62537.16;4976221;28;19921;-85
2023/07/20 00:25:03;;;;;;;;;;;23.80;69.00;;;-151.14;100.00;62537.16;4992269;28;19922;-86
2023/07/20 00:27:31;;;;;;;;;;;23.80;69.10;;;-151.14;100.00;62537.16;4975429;28;19928;-85
2023/07/20 00:30:00;;;;;;;;;;;23.80;69.10;;;-151.14;100.00;62537.16;4992316;28;19922;-85
2023/07/20 00:32:28;;;;;;;;;;;23.90;69.20;;;-151.14;100.00;62537.16;4976075;28;19926;-85
2023/07/20 00:34:56;;;;;;;;;;;23.80;69.10;;;-151.14;100.00;62537.16;4992340;28;19928;-85
2023/07/20 00:37:24;;;;;;;;;;;23.80;69.70;;;-151.14;100.00;62537.16;4991600;28;19928;-86
2023/07/20 00:39:52;;;;;;;;;;;23.80;69.00;;;-151.14;100.00;62537.16;4976069;28;19921;-85
2023/07/20 00:42:21;;;;;;;;;;;23.80;69.20;;;-151.14;100.00;62537.16;4992092;28;19922;-86
2023/07/20 00:44:49;;;;;;;;;;;23.80;69.20;;;-151.14;100.00;62537.16;4963175;28;19922;-86
2023/07/20 00:47:17;;;;;;;;;;;23.70;69.30;;;-151.14;100.00;62537.16;4956003;28;19922;-85
2023/07/20 00:49:46;;;;;;;;;;;23.80;69.40;;;-151.14;100.00;62537.16;4972617;28;20120;-85
2023/07/20 00:52:14;;;;;;;;;;;23.80;69.50;;;-151.14;100.00;62537.16;4972493;28;19922;-85
2023/07/20 00:54:44;;;;;;;;;;;23.80;69.50;;;-151.14;100.00;62537.16;4956613;28;20217;-85
2023/07/20 00:57:12;;;;;;;;;;;23.80;69.50;;;-151.14;100.00;62537.16;4971993;28;19942;-85
2023/07/20 00:59:41;;;;;;;;;;;23.80;69.50;;;-151.14;100.00;62537.16;4965749;28;20255;-85
2023/07/20 01:02:09;;;;;;;;;;;23.80;69.30;;;-151.14;100.00;62537.16;4975576;28;19922;-85
2023/07/20 01:04:37;;;;;;;;;;;23.80;69.30;;;-151.14;100.00;62537.16;4975540;28;19922;-86
2023/07/20 01:07:15;;;;;;;;;;;23.80;69.30;;;-151.14;100.00;62537.16;4991131;28;19928;-85
2023/07/20 01:09:45;;;;;;;;;;;23.80;69.30;;;-151.14;100.00;62537.16;4991823;28;19928;-85
2023/07/20 01:12:14;;;;;;;;;;;23.80;69.30;;;-151.14;100.00;62537.16;4975392;28;19922;-85
2023/07/20 01:14:44;;;;;;;;;;;23.90;69.40;;;-151.14;100.00;62537.16;4991759;28;19947;-85
2023/07/20 01:17:12;;;;;;;;;;;23.80;69.30;;;-151.14;100.00;62537.16;4991081;28;19922;-86
2023/07/20 01:19:40;;;;;;;;;;;23.80;69.30;;;-151.14;100.00;62537.16;4991644;28;19922;-85
2023/07/20 01:22:12;;;;;;;;;;;23.90;69.30;;;-151.14;100.00;62537.16;4991510;28;19922;-86
2023/07/20 01:24:51;;;;;;;;;;;23.80;69.30;;;-151.14;100.00;62537.16;4991563;28;19921;-85
2023/07/20 01:28:02;;;;;;;;;;;23.90;69.50;;;-151.14;100.00;62537.16;4974643;28;19922;-85
2023/07/20 01:30:42;;;;;;;;;;;23.80;69.40;;;-151.14;100.00;62537.16;4975278;28;19922;-85
2023/07/20 01:33:12;;;;;;;;;;;23.90;69.60;;;-151.14;100.00;62537.16;4991318;28;20209;-85
2023/07/20 01:35:43;;;;;;;;;;;23.80;69.50;;;-151.14;100.00;62537.16;4990793;28;19922;-85
2023/07/20 01:38:11;;;;;;;;;;;23.80;69.60;;;-151.14;100.00;62537.16;4975129;28;19922;-85
2023/07/20 01:40:39;;;;;;;;;;;23.80;69.70;;;-151.14;100.00;62537.16;4991366;28;19922;-86
2023/07/20 01:43:07;;;;;;;;;;;23.80;69.70;;;-151.14;100.00;62537.16;4975130;28;19928;-85
2023/07/20 01:45:35;;;;;;;;;;;23.80;69.80;;;-151.14;100.00;62537.16;4974362;28;20253;-86
2023/07/20 01:48:03;;;;;;;;;;;23.80;69.80;;;-151.14;100.00;62537.16;4991199;28;19955;-85
2023/07/20 01:50:34;;;;;;;;;;;23.80;69.70;;;-151.14;100.00;62537.16;4990926;28;20113;-85
2023/07/20 01:53:02;;;;;;;;;;;23.80;69.60;;;-151.14;100.00;62537.16;4991228;28;19922;-85
2023/07/20 01:55:30;;;;;;;;;;;23.70;69.60;;;-151.14;100.00;62537.16;4981700;28;19928;-85
2023/07/20 01:57:59;;;;;;;;;;;23.70;69.80;;;-151.14;100.00;62537.16;4971686;28;19922;-85
2023/07/20 02:00:30;;;;;;;;;;;23.80;69.60;;;-151.14;100.00;62537.16;4955411;28;20212;-85
2023/07/20 02:02:58;;;;;;;;;;;23.70;69.50;;;-151.14;100.00;62537.16;4955452;28;19945;-85
2023/07/20 02:05:26;;;;;;;;;;;23.70;69.80;;;-151.14;100.00;62537.16;5020203;23;19922;-82
2023/07/20 02:07:56;;;;;;;;;;;23.60;69.80;;;-151.14;100.00;62537.16;5009796;28;20204;-81
2023/07/20 02:10:24;;;;;;;;;;;23.60;70.00;;;-151.14;100.00;62537.16;5010665;28;19921;-81
2023/07/20 02:12:52;;;;;;;;;;;23.60;70.00;;;-151.14;100.00;62537.16;5011680;28;20280;-82
2023/07/20 02:15:21;;;;;;;;;;;23.50;70.10;;;-151.14;100.00;62537.16;4980954;28;19922;-81
2023/07/20 02:17:49;;;;;;;;;;;23.50;70.10;;;-151.14;100.00;62537.16;4990587;28;19921;-82
2023/07/20 02:20:17;;;;;;;;;;;23.40;70.40;;;-151.14;100.00;62537.16;4991131;28;20120;-81
2023/07/20 02:22:45;;;;;;;;;;;23.40;70.40;;;-151.14;100.00;62537.16;5007170;28;20213;-81
2023/07/20 02:25:15;;;;;;;;;;;23.40;70.60;;;-151.14;100.00;62537.16;5009598;28;19928;-81
2023/07/20 02:27:43;;;;;;;;;;;23.40;70.50;;;-151.14;100.00;62537.16;5009861;28;19927;-82
2023/07/20 02:30:11;;;;;;;;;;;23.40;70.60;;;-151.14;100.00;62537.16;5010264;28;20231;-81
2023/07/20 02:32:39;;;;;;;;;;;23.40;70.60;;;-151.14;100.00;62537.16;4994087;28;19921;-82
2023/07/20 02:35:08;;;;;;;;;;;23.40;70.50;;;-151.14;100.00;62537.16;4993759;28;19921;-82
2023/07/20 02:37:36;;;;;;;;;;;23.40;70.20;;;-151.14;100.00;62537.16;5009701;28;20112;-82
2023/07/20 02:40:06;;;;;;;;;;;23.40;70.30;;;-151.14;100.00;62537.16;5011654;28;20235;-81
2023/07/20 02:42:36;;;;;;;;;;;23.50;70.50;;;-151.14;100.00;62537.16;5013826;28;19952;-82
2023/07/20 02:45:05;;;;;;;;;;;23.50;70.30;;;-151.14;100.00;62537.16;5013723;28;19922;-82
2023/07/20 02:47:34;;;;;;;;;;;23.50;70.30;;;-151.14;100.00;62537.16;5012885;28;19922;-81
2023/07/20 02:50:02;;;;;;;;;;;23.50;70.20;;;-151.14;100.00;62537.16;4997324;28;20116;-82
2023/07/20 02:52:32;;;;;;;;;;;23.50;70.20;;;-151.14;100.00;62537.16;5013833;28;19921;-82
2023/07/20 02:55:00;;;;;;;;;;;23.50;70.20;;;-151.14;100.00;62537.16;5013458;28;19922;-81
2023/07/20 02:57:28;;;;;;;;;;;23.50;70.10;;;-151.14;100.00;62537.16;5013034;28;19921;-81
2023/07/20 02:59:57;;;;;;;;;;;23.60;70.00;;;-151.14;100.00;62537.16;5014514;28;19921;-82
2023/07/20 03:02:25;;;;;;;;;;;23.60;69.90;;;-151.14;100.00;62537.16;5013347;28;19925;-81
2023/07/20 03:04:54;;;;;;;;;;;23.60;69.90;;;-151.14;100.00;62537.16;5014226;28;19951;-82
2023/07/20 03:07:22;;;;;;;;;;;23.60;70.60;;;-151.14;100.00;62537.16;4996422;28;20117;-82
2023/07/20 03:09:51;;;;;;;;;;;23.60;69.80;;;-151.14;100.00;62537.16;5013473;28;19922;-82
2023/07/20 03:12:19;;;;;;;;;;;23.60;69.70;;;-151.14;100.00;62537.16;5013245;28;19922;-82
2023/07/20 03:14:47;;;;;;;;;;;23.60;69.70;;;-151.14;100.00;62537.16;5013187;28;19928;-82
2023/07/20 03:17:16;;;;;;;;;;;23.60;69.70;;;-151.14;100.00;62537.16;5012495;28;20231;-81
2023/07/20 03:19:47;;;;;;;;;;;23.60;69.60;;;-151.14;100.00;62537.16;4996808;28;19928;-82
2023/07/20 03:22:15;;;;;;;;;;;23.60;69.50;;;-151.14;100.00;62537.16;5013145;28;20123;-82
2023/07/20 03:24:43;;;;;;;;;;;23.60;69.50;;;-151.14;100.00;62537.16;5013051;28;20209;-82
2023/07/20 03:27:11;;;;;;;;;;;23.60;69.40;;;-151.14;100.00;62537.16;4996259;28;20216;-82
2023/07/20 03:29:39;;;;;;;;;;;23.60;69.40;;;-151.14;100.00;62537.16;4996686;28;19928;-82
2023/07/20 03:32:08;;;;;;;;;;;23.60;69.40;;;-151.14;100.00;62537.16;4996565;28;19922;-82
2023/07/20 03:34:37;;;;;;;;;;;23.60;69.40;;;-151.14;100.00;62537.16;4996531;28;19955;-82
2023/07/20 03:37:06;;;;;;;;;;;23.60;69.40;;;-151.14;100.00;62537.16;4995974;28;19928;-81
2023/07/20 03:39:34;;;;;;;;;;;23.60;69.50;;;-151.14;100.00;62537.16;5012724;28;19927;-82
2023/07/20 03:42:02;;;;;;;;;;;23.60;69.50;;;-151.14;100.00;62537.16;4996379;28;20225;-81
2023/07/20 03:44:30;;;;;;;;;;;23.60;69.50;;;-151.14;100.00;62537.16;4996236;28;19955;-82
2023/07/20 03:46:58;;;;;;;;;;;23.60;69.50;;;-151.14;100.00;62537.16;5012093;28;19921;-82
2023/07/20 03:49:26;;;;;;;;;;;23.60;69.60;;;-151.14;100.00;62537.16;4996125;28;19922;-81
2023/07/20 03:51:55;;;;;;;;;;;23.60;69.60;;;-151.14;100.00;62537.16;5011956;28;19922;-81
2023/07/20 03:54:23;;;;;;;;;;;23.60;69.50;;;-151.14;100.00;62537.16;5012534;28;19922;-81
2023/07/20 03:56:52;;;;;;;;;;;23.60;69.60;;;-151.14;100.00;62537.16;4995653;28;19928;-81
2023/07/20 03:59:20;;;;;;;;;;;23.60;69.40;;;-151.14;100.00;62537.16;5012336;28;19928;-82
2023/07/20 04:01:47;;;;;;;;;;;23.60;69.60;;;-151.14;100.00;62537.16;5012594;28;19921;-82
2023/07/20 04:04:17;;;;;;;;;;;23.60;69.60;;;-151.14;100.00;62537.16;4996025;28;20205;-81
2023/07/20 04:06:45;;;;;;;;;;;23.60;69.60;;;-151.14;100.00;62537.16;5013203;28;19921;-82
2023/07/20 04:09:14;;;;;;;;;;;23.60;69.60;;;-151.14;100.00;62537.16;5028701;28;20336;-81
2023/07/20 04:11:42;;;;;;;;;;;23.60;69.70;;;-151.14;100.00;62537.16;5013367;28;20209;-81
2023/07/20 04:14:10;;;;;;;;;;;23.60;69.70;;;-151.14;100.00;62537.16;5012352;28;19921;-82
2023/07/20 04:16:38;;;;;;;;;;;23.60;69.80;;;-151.14;100.00;62537.16;5012653;28;19944;-82
2023/07/20 04:19:06;;;;;;;;;;;23.60;69.70;;;-151.14;100.00;62537.16;5012260;28;19921;-81
2023/07/20 04:21:34;;;;;;;;;;;23.60;69.80;;;-151.14;100.00;62537.16;5012185;28;19922;-81
2023/07/20 04:24:02;;;;;;;;;;;23.60;69.80;;;-151.14;100.00;62537.16;5013182;28;19921;-82
2023/07/20 04:26:31;;;;;;;;;;;23.60;69.80;;;-151.14;100.00;62537.16;5011653;28;19927;-81
2023/07/20 04:28:59;;;;;;;;;;;23.60;69.80;;;-151.14;100.00;62537.16;4995822;28;19948;-81
2023/07/20 04:31:37;;;;;;;;;;;23.60;70.70;;;-151.14;100.00;62537.16;5011947;28;19929;-81
2023/07/20 04:34:05;;;;;;;;;;;23.60;69.90;;;-151.14;100.00;62537.16;4995594;28;19921;-82
2023/07/20 04:36:36;;;;;;;;;;;23.60;69.90;;;-151.14;100.00;62537.16;4995084;28;19930;-82
2023/07/20 04:39:04;;;;;;;;;;;23.60;69.80;;;-151.14;100.00;62537.16;5011951;28;20239;-82
2023/07/20 04:41:38;;;;;;;;;;;23.60;69.90;;;-151.14;100.00;62537.16;5011998;28;20120;-82
2023/07/20 04:44:06;;;;;;;;;;;23.60;70.10;;;-151.14;100.00;62537.16;5011785;28;19927;-82
2023/07/20 04:46:34;;;;;;;;;;;23.70;70.30;;;-151.14;100.00;62537.16;4994911;28;19921;-81
2023/07/20 04:49:05;;;;;;;;;;;23.70;70.30;;;-151.14;100.00;62537.16;5011823;28;19921;-82
2023/07/20 04:51:37;;;;;;;;;;;23.70;70.60;;;-151.14;100.00;62537.16;5011653;28;20120;-81
2023/07/20 04:54:05;;;;;;;;;;;23.80;70.50;;;-151.14;100.00;62537.16;5011703;28;19928;-82
2023/07/20 04:56:38;;;;;;;;;;;23.80;70.30;;;-151.14;100.00;62537.16;4994820;28;19927;-82
2023/07/20 04:59:09;;;;;;;;;;;23.80;70.10;;;-151.14;100.00;62537.16;5011719;28;19922;-82
2023/07/20 05:01:37;;;;;;;;;;;23.90;70.10;;;-151.14;100.00;62537.16;5011563;28;19922;-82
2023/07/20 05:04:05;;;;;;;;;;;23.90;70.20;;;-151.14;100.00;62537.16;5010202;28;19928;-81
2023/07/20 05:06:33;;;;;;;;;;;23.90;70.00;;;-151.14;100.00;62537.16;5012239;28;19922;-81
2023/07/20 05:09:02;;;;;;;;;;;24.00;69.80;;;-151.14;100.00;62537.16;4995339;28;19922;-81
2023/07/20 05:11:30;;;;;;;;;;;24.00;69.60;;;-151.14;100.00;62537.16;4995195;28;19928;-82
2023/07/20 05:14:00;;;;;;;;;;;24.00;69.70;;;-151.14;100.00;62537.16;4995222;28;19922;-82
2023/07/20 05:16:28;;;;;;;;;;;24.00;69.70;;;-151.14;100.00;62537.16;4994420;28;19928;-81
2023/07/20 05:19:01;;;;;;;;;;;24.00;69.80;;;-151.14;100.00;62537.16;5011417;28;19922;-82
2023/07/20 05:21:29;;;;;;;;;;;24.00;70.00;;;-151.14;100.00;62537.16;5011403;28;19928;-82
2023/07/20 05:23:57;;;;;;;;;;;24.00;70.30;;;-151.14;100.00;62537.16;5011234;28;19927;-81
2023/07/20 05:26:25;;;;;;;;;;;24.00;70.20;;;-151.14;100.00;62537.16;4994272;28;19928;-82
2023/07/20 05:28:53;;;;;;;;;;;23.90;70.50;;;-151.14;100.00;62537.16;5012332;28;19928;-82
2023/07/20 05:31:22;;;;;;;;;;;23.90;70.30;;;-151.14;100.00;62537.16;5011253;28;19944;-82
2023/07/20 05:33:50;;;;;;;;;;;23.90;70.40;;;-151.14;100.00;62537.16;5011005;28;19928;-82
2023/07/20 05:36:18;;;;;;;;;;;23.90;70.40;;;-151.14;100.00;62537.16;5011675;28;19922;-82
2023/07/20 05:38:47;;;;;;;;;;;23.90;70.60;;;-151.14;100.00;62537.16;5011159;28;19928;-82
2023/07/20 05:41:15;;;;;;;;;;;24.00;70.60;;;-151.14;100.00;62537.16;5011103;28;19936;-82
2023/07/20 05:43:43;;;;;;;;;;;24.00;70.40;;;-151.14;100.00;62537.16;5012090;28;20112;-82
2023/07/20 05:46:11;;;;;;;;;;;24.00;70.30;;;-151.14;100.00;62537.16;5010463;28;19921;-82
2023/07/20 05:48:40;;;;;;;;;;;24.10;70.40;;;-151.14;100.00;62537.16;5010902;28;20021;-82
2023/07/20 05:51:08;;;;;;;;;;;24.10;70.10;;;-151.14;100.00;62537.16;5010962;28;19927;-82
2023/07/20 05:53:37;;;;;;;;;;;24.20;69.90;;;-151.14;100.00;62537.16;4994504;28;19922;-82
2023/07/20 05:56:06;;;;;;;;;;;24.20;69.70;;;-151.14;100.00;62537.16;5010193;28;19927;-82
2023/07/20 05:58:34;;;;;;;;;;;24.30;69.70;;;-151.14;100.00;62537.16;5010717;28;20097;-82
2023/07/20 06:01:02;;;;;;;;;;;24.30;69.50;;;-151.14;100.00;62537.16;4994490;28;19921;-83
2023/07/20 06:03:30;;;;;;;;;;;24.30;69.30;;;-151.14;100.00;62537.16;5010647;28;19927;-82
2023/07/20 06:06:01;;;;;;;;;;;24.40;69.10;;;-151.14;100.00;62537.16;4991523;28;19921;-82
2023/07/20 06:08:29;;;;;;;;;;;24.50;69.00;;;-151.14;100.00;62537.16;4991193;28;20117;-82
2023/07/20 06:10:57;;;;;;;;;;;24.50;68.80;;;-151.14;100.00;62537.16;4991200;28;19928;-82
2023/07/20 06:13:25;;;;;;;;;;;24.60;68.70;;;-151.14;100.00;62537.16;4974816;28;19928;-82
2023/07/20 06:15:53;;;;;;;;;;;24.70;68.70;;;-151.14;100.00;62537.16;4993074;28;19928;-82
2023/07/20 06:18:22;;;;;;;;;;;24.70;68.60;;;-151.14;100.00;62537.16;4995647;28;20227;-82
2023/07/20 06:20:51;;;;;;;;;;;24.80;68.50;;;-151.14;100.00;62537.16;4994460;28;20235;-82
2023/07/20 06:23:21;;;;;;;;;;;24.80;68.40;;;-151.14;100.00;62537.16;4978142;28;19922;-82
2023/07/20 06:25:49;;;;;;;;;;;24.80;68.20;;;-151.14;100.00;62537.16;4993866;28;19922;-82
2023/07/20 06:28:17;;;;;;;;;;;24.90;68.30;;;-151.14;100.00;62537.16;4978022;28;19928;-82
2023/07/20 06:30:45;;;;;;;;;;;24.90;68.10;;;-151.14;100.00;62537.16;4978238;28;19922;-82
2023/07/20 06:33:13;;;;;;;;;;;25.00;68.10;;;-151.14;100.00;62537.16;4994140;28;19922;-82
2023/07/20 06:35:42;;;;;;;;;;;25.00;68.00;;;-151.14;100.00;62537.16;4977607;28;19929;-82
2023/07/20 06:38:10;;;;;;;;;;;25.00;68.00;;;-151.14;100.00;62537.16;4994136;28;19921;-82
2023/07/20 06:40:40;;;;;;;;;;;25.00;68.00;;;-151.14;100.00;62537.16;4977936;28;19929;-82
2023/07/20 06:43:08;;;;;;;;;;;25.10;67.90;;;-151.14;100.00;62537.16;4994044;28;19928;-82
2023/07/20 06:45:36;;;;;;;;;;;25.10;68.00;;;-151.14;100.00;62537.16;4977392;28;19922;-82
2023/07/20 06:48:04;;;;;;;;;;;25.10;67.90;;;-151.14;100.00;62537.16;4995117;28;19922;-82
2023/07/20 06:50:32;;;;;;;;;;;25.10;67.90;;;-151.14;100.00;62537.16;4994070;28;19922;-82
2023/07/20 06:53:03;;;;;;;;;;;25.10;67.80;;;-151.14;100.00;62537.16;4993731;28;19922;-82
2023/07/20 06:55:31;;;;;;;;;;;25.10;67.70;;;-151.14;100.00;62537.16;4994574;28;19922;-82
2023/07/20 06:58:00;;;;;;;;;;;25.20;67.60;;;-151.14;100.00;62537.16;4993656;28;19981;-82
2023/07/20 07:00:28;;;;;;;;;;;25.20;67.60;;;-151.14;100.00;62537.16;4977812;28;19926;-82
2023/07/20 07:02:56;;;;;;;;;;;25.20;67.60;;;-151.14;100.00;62537.16;4993893;28;20094;-83
2023/07/20 07:05:24;;;;;;;;;;;25.20;67.60;;;-151.14;100.00;62537.16;4994783;28;20213;-82
2023/07/20 07:07:52;;;;;;;;;;;25.20;67.40;;;-151.14;100.00;62537.16;4977531;28;19928;-82
2023/07/20 07:10:20;;;;;;;;;;;25.20;67.50;;;-151.14;100.00;62537.16;4977602;28;19921;-82
2023/07/20 07:12:48;;;;;;;;;;;25.30;67.60;;;-151.14;100.00;62537.16;4999129;28;19925;-82
2023/07/20 07:15:17;;;;;;;;;;;25.30;67.50;;;-151.14;100.00;62537.16;4996654;28;19925;-83
2023/07/20 07:17:45;;;;;;;;;;;25.30;67.40;;;-151.14;100.00;62537.16;5012925;28;19922;-82
2023/07/20 07:20:13;;;;;;;;;;;25.30;67.30;;;-151.14;100.00;62537.16;5013386;28;19928;-82
2023/07/20 07:22:43;;;;;;;;;;;25.40;67.20;;;-151.14;100.00;62537.16;5013108;28;19922;-82
2023/07/20 07:25:12;;;;;;;;;;;25.40;67.10;;;-151.14;100.00;62537.16;5014308;28;19922;-82
2023/07/20 07:27:40;;;;;;;;;;;25.40;67.10;;;-151.14;100.00;62537.16;5011327;28;19922;-82
2023/07/20 07:30:09;;;;;;;;;;;25.40;67.00;;;-151.14;100.00;62537.16;5013024;28;19921;-82
2023/07/20 07:32:38;;;;;;;;;;;25.40;67.00;;;-151.14;100.00;62537.16;4996635;28;19921;-82
2023/07/20 07:35:07;;;;;;;;;;;25.50;67.00;;;-151.14;100.00;62537.16;5013110;28;20213;-82
2023/07/20 07:37:35;;;;;;;;;;;25.50;67.20;;;-151.14;100.00;62537.16;5012456;28;20307;-81
2023/07/20 07:40:03;;;;;;;;;;;25.50;67.20;;;-151.14;100.00;62537.16;4996698;28;20020;-81
2023/07/20 07:42:31;;;;;;;;;;;25.50;67.20;;;-151.14;100.00;62537.16;5012841;28;19921;-83
2023/07/20 07:44:59;;;;;;;;;;;25.50;67.20;;;-151.14;100.00;62537.16;5012904;28;19921;-82
2023/07/20 07:47:27;;;;;;;;;;;25.50;67.20;;;-151.14;100.00;62537.16;5012238;28;19943;-82
2023/07/20 07:49:57;;;;;;;;;;;25.50;67.20;;;-151.14;100.00;62537.16;5012939;28;20205;-82
2023/07/20 07:52:25;;;;;;;;;;;25.50;67.00;;;-151.14;100.00;62537.16;5012692;28;19921;-82
2023/07/20 07:54:53;;;;;;;;;;;25.50;67.20;;;-151.14;100.00;62537.16;5012415;28;19928;-82
2023/07/20 07:57:21;;;;;;;;;;;25.50;67.10;;;-151.14;100.00;62537.16;5012062;28;19928;-82
2023/07/20 07:59:50;;;;;;;;;;;25.50;67.10;;;-151.14;100.00;62537.16;5012485;28;20208;-83
2023/07/20 08:02:18;;;;;;;;;;;25.60;67.10;;;-151.14;100.00;62537.16;5012563;28;20239;-82
2023/07/20 08:04:46;;;;;;;;;;;25.50;67.30;;;-151.14;100.00;62537.16;5012169;28;19992;-82
2023/07/20 08:07:15;;;;;;;;;;;25.50;67.30;;;-151.14;100.00;62537.16;5008830;28;19928;-82
2023/07/20 08:09:43;;;;;;;;;;;25.50;67.10;;;-151.14;100.00;62537.16;4992931;28;19925;-82
2023/07/20 08:12:11;;;;;;;;;;;25.50;67.10;;;-151.14;100.00;62537.16;4992873;28;19921;-82
2023/07/20 08:14:39;;;;;;;;;;;25.50;67.30;;;-151.14;100.00;62537.16;4992611;28;19926;-82
2023/07/20 08:17:07;;;;;;;;;;;25.50;67.50;;;-151.14;100.00;62537.16;5008407;28;19928;-82
2023/07/20 08:19:35;;;;;;;;;;;25.60;67.20;;;-151.14;100.00;62537.16;4992553;28;19922;-82
2023/07/20 08:22:03;;;;;;;;;;;25.60;67.40;;;-151.14;100.00;62537.16;5009959;28;19928;-82
2023/07/20 08:24:33;;;;;;;;;;;25.60;68.10;;;-151.14;100.00;62537.16;5011943;28;19928;-82
2023/07/20 08:27:01;;;;;;;;;;;25.60;67.40;;;-151.14;100.00;62537.16;5011420;28;19921;-82
2023/07/20 08:29:29;;;;;;;;;;;25.60;67.30;;;-151.14;100.00;62537.16;5012004;28;19930;-82
2023/07/20 08:31:57;;;;;;;;;;;25.50;67.30;;;-151.14;100.00;62537.16;5013150;28;19922;-82
2023/07/20 08:34:25;;;;;;;;;;;25.50;67.30;;;-151.14;100.00;62537.16;5011713;28;20094;-82
2023/07/20 08:36:53;;;;;;;;;;;25.50;67.20;;;-151.14;100.00;62537.16;5011428;28;19921;-82
2023/07/20 08:39:22;;;;;;;;;;;25.50;67.30;;;-151.14;100.00;62537.16;5011641;28;19921;-82
2023/07/20 08:41:51;;;;;;;;;;;25.50;67.30;;;-151.14;100.00;62537.16;4995571;28;19928;-82
2023/07/20 08:44:19;;;;;;;;;;;25.60;67.30;;;-151.14;100.00;62537.16;5028117;28;20239;-83
2023/07/20 08:46:47;;;;;;;;;;;25.60;67.50;;;-151.14;100.00;62537.16;5011354;28;19928;-82
2023/07/20 08:49:16;;;;;;;;;;;25.50;67.30;;;-151.14;100.00;62537.16;5011294;28;19927;-82
2023/07/20 08:51:44;;;;;;;;;;;25.60;67.50;;;-151.14;100.00;62537.16;4995330;28;19922;-82
2023/07/20 08:54:12;;;;;;;;;;;25.60;67.30;;;-151.14;100.00;62537.16;5011541;28;20239;-82
2023/07/20 08:56:40;;;;;;;;;;;25.50;67.50;;;-151.14;100.00;62537.16;5011171;28;20232;-82
2023/07/20 08:59:10;;;;;;;;;;;25.60;67.50;;;-151.14;100.00;62537.16;4995214;28;19928;-82
2023/07/20 09:01:38;;;;;;;;;;;25.60;67.60;;;-151.14;100.00;62537.16;5011692;28;19927;-82
2023/07/20 09:04:06;;;;;;;;;;;25.60;67.80;;;-151.14;100.00;62537.16;5011283;28;20106;-82
2023/07/20 09:06:34;;;;;;;;;;;25.60;67.60;;;-151.14;100.00;62537.16;5012115;28;19921;-82
2023/07/20 09:09:03;;;;;;;;;;;25.60;67.40;;;-151.14;100.00;62537.16;5011392;28;20364;-82
2023/07/20 09:11:31;;;;;;;;;;;25.60;67.40;;;-151.14;100.00;62537.16;5011470;28;19937;-82
2023/07/20 09:14:05;;;;;;;;;;;25.60;67.40;;;-151.14;100.00;62537.16;4994890;28;19922;-82
2023/07/20 09:16:44;;;;;;;;;;;25.60;67.50;;;-151.14;100.00;62537.16;5011927;28;19928;-82
2023/07/20 09:19:12;;;;;;;;;;;25.60;67.40;;;-151.14;100.00;62537.16;5011470;28;19922;-81
2023/07/20 09:21:40;;;;;;;;;;;25.60;67.50;;;-151.14;100.00;62537.16;5012549;28;19928;-81
2023/07/20 09:24:08;;;;;;;;;;;25.60;67.40;;;-151.14;100.00;62537.16;5012195;28;19928;-81
2023/07/20 09:26:41;;;;;;;;;;;25.50;67.60;;;-151.14;100.00;62537.16;5010804;28;20121;-81
2023/07/20 09:29:09;;;;;;;;;;;25.50;67.60;;;-151.14;100.00;62537.16;5011209;28;19928;-81
2023/07/20 09:31:39;;;;;;;;;;;25.60;67.40;;;-151.14;100.00;62537.16;4994972;28;20105;-82
2023/07/20 09:34:07;;;;;;;;;;;25.50;67.90;;;-151.14;100.00;62537.16;4994680;28;19927;-81
2023/07/20 09:36:37;;;;;;;;;;;25.50;67.80;;;-151.14;100.00;62537.16;5010519;28;19933;-81
2023/07/20 09:39:05;;;;;;;;;;;25.50;67.60;;;-151.14;100.00;62537.16;5010864;28;19921;-81
2023/07/20 09:41:42;;;;;;;;;;;25.60;67.70;;;-151.14;100.00;62537.16;5011237;28;19928;-81
2023/07/20 09:44:10;;;;;;;;;;;25.60;67.80;;;-151.14;100.00;62537.16;4994556;28;19921;-81
2023/07/20 09:46:46;;;;;;;;;;;25.60;67.60;;;-151.14;100.00;62537.16;5011606;28;20205;-82
2023/07/20 09:49:15;;;;;;;;;;;25.60;67.60;;;-151.14;100.00;62537.16;5010123;28;19944;-81
2023/07/20 09:51:43;;;;;;;;;;;25.60;67.50;;;-151.14;100.00;62537.16;5010983;28;19921;-81
2023/07/20 09:54:11;;;;;;;;;;;25.60;67.60;;;-151.14;100.00;62537.16;5010576;28;19928;-81
2023/07/20 09:56:39;;;;;;;;;;;25.50;67.60;;;-151.14;100.00;62537.16;5010393;28;19922;-81
2023/07/20 09:59:07;;;;;;;;;;;25.50;67.60;;;-151.14;100.00;62537.16;5010955;28;19927;-82
2023/07/20 10:01:35;;;;;;;;;;;25.50;67.70;;;-151.14;100.00;62537.16;5010710;28;20234;-81
2023/07/20 10:04:05;;;;;;;;;;;25.50;67.60;;;-151.14;100.00;62537.16;5010451;28;20235;-81
2023/07/20 10:06:34;;;;;;;;;;;25.50;67.60;;;-151.14;100.00;62537.16;4993646;28;19923;-81
2023/07/20 10:09:03;;;;;;;;;;;25.50;67.70;;;-151.14;100.00;62537.16;4994487;28;19921;-81
2023/07/20 10:11:33;;;;;;;;;;;25.50;67.60;;;-151.14;100.00;62537.16;4994626;28;19921;-81
2023/07/20 10:14:02;;;;;;;;;;;25.50;67.60;;;-151.14;100.00;62537.16;4994211;28;19922;-81
2023/07/20 10:16:32;;;;;;;;;;;25.50;67.70;;;-151.14;100.00;62537.16;5009732;28;19927;-82
2023/07/20 10:19:06;;;;;;;;;;;25.50;67.60;;;-151.14;100.00;62537.16;4994299;28;20209;-81
2023/07/20 10:21:34;;;;;;;;;;;25.50;67.60;;;-151.14;100.00;62537.16;5011570;28;19928;-81
2023/07/20 10:24:02;;;;;;;;;;;25.50;67.60;;;-151.14;100.00;62537.16;4994157;28;19921;-82
2023/07/20 10:26:31;;;;;;;;;;;25.50;67.60;;;-151.14;100.00;62537.16;4977398;28;20235;-81
2023/07/20 10:28:59;;;;;;;;;;;25.50;67.60;;;-151.14;100.00;62537.16;4994305;28;19936;-82
2023/07/20 10:31:28;;;;;;;;;;;25.50;67.50;;;-151.14;100.00;62537.16;4994186;28;19921;-82
2023/07/20 10:33:57;;;;;;;;;;;25.50;67.50;;;-151.14;100.00;62537.16;4994122;28;19929;-81
2023/07/20 10:36:28;;;;;;;;;;;25.50;67.30;;;-151.14;100.00;62537.16;4993286;28;19921;-82
2023/07/20 10:38:56;;;;;;;;;;;25.60;67.30;;;-151.14;100.00;62537.16;5011366;28;20250;-81
2023/07/20 10:41:29;;;;;;;;;;;25.60;67.10;;;-151.14;100.00;62537.16;4993931;28;19921;-81
2023/07/20 10:44:00;;;;;;;;;;;25.50;67.10;;;-151.14;100.00;62537.16;5011313;28;20093;-82
2023/07/20 10:46:35;;;;;;;;;;;25.60;67.20;;;-151.14;100.00;62537.16;5010662;28;19921;-81
2023/07/20 10:49:04;;;;;;;;;;;25.50;67.20;;;-151.14;100.00;62537.16;4967677;28;19922;-81
2023/07/20 10:51:40;;;;;;;;;;;25.50;67.20;;;-151.14;100.00;62537.16;4972295;28;20125;-82
2023/07/20 10:54:09;;;;;;;;;;;25.50;67.20;;;-151.14;100.00;62537.16;4955020;28;20121;-82
2023/07/20 10:56:37;;;;;;;;;;;25.50;67.00;;;-151.14;100.00;62537.16;4954705;28;20318;-82
2023/07/20 10:59:18;;;;;;;;;;;25.50;67.20;;;-151.14;100.00;62537.16;4955069;28;19922;-81
2023/07/20 11:01:47;;;;;;;;;;;25.50;67.20;;;-151.14;100.00;62537.16;4957499;28;19928;-82